createdAt,value
2023-09-06T00:03:52.073Z,9.18
2023-09-06T00:08:54.602Z,6.90
2023-09-06T00:13:56.799Z,6.20
2023-09-06T00:19:01.244Z,5.97
2023-09-06T00:24:04.504Z,8.48
2023-09-06T00:29:09.536Z,7.05
2023-09-06T00:34:11.684Z,6.75
2023-09-06T00:39:15.176Z,5.57
2023-09-06T00:44:19.966Z,10.60
2023-09-06T00:49:22.399Z,8.68
2023-09-06T00:54:24.538Z,7.38
2023-09-06T00:59:27.959Z,6.47
2023-09-06T01:04:30.135Z,7.20
2023-09-06T01:09:32.410Z,7.47
2023-09-06T01:14:37.804Z,8.15
2023-09-06T01:19:46.135Z,7.30
2023-09-06T01:24:49.037Z,8.18
2023-09-06T01:29:51.375Z,8.65
2023-09-06T01:34:55.636Z,7.28
2023-09-06T01:39:57.894Z,6.90
2023-09-06T01:45:00.132Z,8.43
2023-09-06T01:50:03.403Z,6.65
2023-09-06T01:55:06.340Z,6.70
2023-09-06T02:00:26.221Z,7.57
2023-09-06T02:05:31.233Z,13.23
2023-09-06T02:10:33.436Z,6.93
2023-09-06T02:15:35.666Z,9.20
2023-09-06T02:20:40.200Z,9.60
2023-09-06T02:25:46.363Z,5.72
2023-09-06T02:30:48.667Z,8.35
2023-09-06T02:35:51.057Z,9.00
2023-09-06T02:40:53.390Z,6.07
2023-09-06T02:45:56.042Z,7.03
2023-09-06T02:51:01.004Z,7.90
2023-09-06T02:56:03.635Z,9.32
2023-09-06T03:01:07.496Z,7.85
2023-09-06T03:06:18.948Z,9.18
2023-09-06T03:11:21.720Z,5.85
2023-09-06T03:16:24.631Z,7.57
2023-09-06T03:21:29.993Z,6.60
2023-09-06T03:26:32.210Z,9.05
2023-09-06T03:31:42.408Z,9.65
2023-09-06T03:36:47.289Z,7.82
2023-09-06T03:41:49.728Z,6.50
2023-09-06T03:46:52.894Z,5.63
2023-09-06T03:51:55.330Z,7.75
2023-09-06T03:56:58.812Z,8.85
2023-09-06T04:02:01.539Z,9.13
2023-09-06T04:07:04.385Z,10.70
2023-09-06T04:12:07.130Z,7.22
2023-09-06T04:17:10.608Z,7.90
2023-09-06T04:22:14.145Z,8.20
2023-09-06T04:27:17.348Z,6.32
2023-09-06T04:32:21.149Z,7.65
2023-09-06T04:37:24.510Z,6.60
2023-09-06T04:42:28.727Z,8.27
2023-09-06T04:47:31.844Z,7.40
2023-09-06T04:52:39.208Z,8.00
2023-09-06T04:57:42.759Z,9.10
2023-09-06T05:02:46.826Z,6.47
2023-09-06T05:07:48.996Z,10.65
2023-09-06T05:12:51.215Z,12.10
2023-09-06T05:17:54.231Z,7.47
2023-09-06T05:22:57.945Z,8.57
2023-09-06T05:28:02.988Z,8.60
2023-09-06T05:33:05.675Z,9.63
2023-09-06T05:38:10.684Z,9.98
2023-09-06T05:43:14.956Z,10.25
2023-09-06T05:48:18.108Z,9.40
2023-09-06T05:53:20.555Z,12.07
2023-09-06T05:58:24.905Z,13.70
2023-09-06T06:03:27.253Z,11.27
2023-09-06T06:08:29.843Z,11.00
2023-09-06T06:13:32.307Z,14.95
2023-09-06T06:18:34.481Z,14.70
2023-09-06T06:23:36.616Z,14.02
2023-09-06T06:28:38.999Z,9.82
2023-09-06T06:33:41.511Z,10.13
2023-09-06T06:38:47.331Z,10.55
2023-09-06T06:43:53.413Z,9.25
2023-09-06T06:48:56.180Z,9.10
2023-09-06T06:53:58.824Z,9.73
2023-09-06T06:59:01.269Z,8.02
2023-09-06T07:04:06.589Z,9.38
2023-09-06T07:09:09.099Z,12.05
2023-09-06T07:14:11.291Z,7.53
2023-09-06T07:19:13.779Z,8.15
2023-09-06T07:24:16.064Z,9.30
2023-09-06T07:29:19.878Z,8.85
2023-09-06T07:34:22.208Z,6.68
2023-09-06T07:39:24.555Z,5.78
2023-09-06T07:44:30.646Z,7.78
2023-09-06T07:49:32.843Z,20.45
2023-09-06T07:54:35.714Z,9.70
2023-09-06T07:59:37.900Z,8.55
2023-09-06T08:04:40.250Z,11.00
2023-09-06T08:09:42.657Z,9.93
2023-09-06T08:14:45.026Z,7.00
2023-09-06T08:19:47.424Z,8.60
2023-09-06T08:24:49.568Z,8.95
2023-09-06T08:29:51.725Z,7.50
2023-09-06T08:34:53.945Z,13.52
2023-09-06T08:39:56.127Z,9.73
2023-09-06T08:44:58.428Z,7.97
2023-09-06T08:50:00.882Z,9.45
2023-09-06T08:55:04.362Z,5.38
2023-09-06T09:00:10.400Z,8.40
2023-09-06T09:05:21.058Z,7.93
2023-09-06T09:10:27.433Z,7.35
2023-09-06T09:15:34.326Z,6.05
2023-09-06T09:20:39.291Z,7.05
2023-09-06T09:25:49.724Z,7.70
2023-09-06T09:30:52.661Z,6.47
2023-09-06T09:35:55.001Z,7.70
2023-09-06T09:41:08.108Z,6.68
2023-09-06T09:46:11.078Z,5.07
2023-09-06T09:51:17.558Z,4.88
2023-09-06T09:56:29.505Z,4.01
2023-09-06T10:01:32.831Z,6.40
2023-09-06T10:06:35.980Z,6.07
2023-09-06T10:11:38.802Z,4.93
2023-09-06T10:16:41.772Z,6.88
2023-09-06T10:21:45.920Z,5.25
2023-09-06T10:26:49.008Z,4.05
2023-09-06T10:31:52.956Z,6.43
2023-09-06T10:36:58.223Z,6.57
2023-09-06T10:42:12.621Z,4.45
2023-09-06T10:47:36.904Z,13.15
2023-09-06T10:52:42.999Z,5.50
2023-09-06T10:57:56.126Z,6.63
2023-09-06T11:03:07.607Z,6.57
2023-09-06T11:08:22.496Z,5.57
2023-09-06T11:13:30.335Z,4.10
2023-09-06T11:18:49.731Z,7.13
2023-09-06T11:23:53.892Z,6.90
2023-09-06T11:29:05.411Z,4.20
2023-09-06T11:34:10.353Z,6.03
2023-09-06T11:39:19.600Z,5.53
2023-09-06T11:44:24.461Z,6.80
2023-09-06T11:49:27.215Z,5.40
2023-09-06T11:54:32.927Z,4.22
2023-09-06T11:59:35.251Z,8.13
2023-09-06T12:04:37.333Z,3.92
2023-09-06T12:09:39.686Z,6.22
2023-09-06T12:14:44.194Z,5.85
2023-09-06T12:19:47.259Z,4.47
2023-09-06T12:24:52.267Z,6.93
2023-09-06T12:29:54.715Z,4.80
2023-09-06T12:34:56.920Z,6.80
2023-09-06T12:39:59.079Z,7.25
2023-09-06T12:45:02.729Z,9.93
2023-09-06T12:50:07.020Z,4.97
2023-09-06T12:55:09.575Z,21.25
2023-09-06T13:00:12.353Z,4.28
2023-09-06T13:05:21.047Z,12.63
2023-09-06T13:10:23.784Z,5.00
2023-09-06T13:15:26.061Z,10.93
2023-09-06T13:20:28.289Z,5.03
2023-09-06T13:25:30.451Z,8.90
2023-09-06T13:30:32.714Z,6.60
2023-09-06T13:35:35.008Z,5.43
2023-09-06T13:40:37.222Z,5.70
2023-09-06T13:45:39.364Z,7.72
2023-09-06T13:50:41.567Z,6.22
2023-09-06T13:55:43.714Z,5.32
2023-09-06T14:00:45.802Z,7.25
2023-09-06T14:05:47.890Z,5.22
2023-09-06T14:10:54.505Z,8.00
2023-09-06T14:15:56.878Z,5.18
2023-09-06T14:20:59.088Z,6.15
2023-09-06T14:26:01.267Z,4.22
2023-09-06T14:31:03.657Z,4.15
2023-09-06T14:36:06.306Z,3.58
2023-09-06T14:41:08.702Z,4.78
2023-09-06T14:46:10.817Z,8.50
2023-09-06T14:51:13.053Z,3.60
2023-09-06T14:56:16.440Z,5.25
2023-09-06T15:01:18.771Z,6.57
2023-09-06T15:06:21.186Z,4.55
2023-09-06T15:11:24.189Z,5.38
2023-09-06T15:16:26.404Z,4.72
2023-09-06T15:21:28.569Z,4.78
2023-09-06T15:26:30.641Z,3.70
2023-09-06T15:31:32.843Z,7.07
2023-09-06T15:36:35.186Z,3.95
2023-09-06T15:41:37.256Z,5.68
2023-09-06T15:46:39.645Z,9.27
2023-09-06T15:51:42.098Z,12.32
2023-09-06T15:56:44.409Z,9.98
2023-09-06T16:01:47.437Z,5.28
2023-09-06T16:06:49.674Z,4.63
2023-09-06T16:11:57.401Z,8.02
2023-09-06T16:16:59.577Z,7.93
2023-09-06T16:22:01.807Z,5.10
2023-09-06T16:27:04.765Z,10.75
2023-09-06T16:32:07.750Z,11.88
2023-09-06T16:37:09.907Z,4.78
2023-09-06T16:42:12.802Z,5.72
2023-09-06T16:47:15.017Z,5.70
2023-09-06T16:52:17.196Z,7.50
2023-09-06T16:57:19.383Z,4.93
2023-09-06T17:02:21.707Z,5.60
2023-09-06T17:07:24.008Z,6.80
2023-09-06T17:12:26.263Z,5.43
2023-09-06T17:17:28.550Z,9.13
2023-09-06T17:22:31.860Z,6.82
2023-09-06T17:27:34.196Z,7.57
2023-09-06T17:33:02.776Z,6.07
2023-09-06T17:38:12.895Z,8.43
2023-09-06T17:43:15.899Z,5.65
2023-09-06T17:48:19.596Z,6.97
2023-09-06T17:53:26.546Z,7.05
2023-09-06T17:58:30.092Z,15.00
2023-09-06T18:03:33.796Z,7.50
2023-09-06T18:08:40.685Z,6.93
2023-09-06T18:13:43.018Z,7.15
2023-09-06T18:18:46.081Z,8.52
2023-09-06T18:23:49.395Z,7.47
2023-09-06T18:28:51.678Z,7.22
2023-09-06T18:33:53.813Z,7.10
2023-09-06T18:38:56.974Z,7.82
2023-09-06T18:43:59.127Z,12.48
2023-09-06T18:49:05.806Z,15.65
2023-09-06T18:54:07.928Z,13.13
2023-09-06T18:59:10.256Z,17.33
2023-09-06T19:04:13.968Z,15.38
2023-09-06T19:09:16.836Z,11.73
2023-09-06T19:14:20.143Z,6.43
2023-09-06T19:19:23.710Z,7.70
2023-09-06T19:24:25.923Z,9.02
2023-09-06T19:29:29.061Z,9.07
2023-09-06T19:34:31.280Z,7.43
2023-09-06T19:39:34.023Z,15.30
2023-09-06T19:44:36.379Z,8.23
2023-09-06T19:49:38.754Z,10.10
2023-09-06T19:54:41.138Z,10.60
2023-09-06T19:59:43.454Z,10.70
2023-09-06T20:04:45.716Z,8.93
2023-09-06T20:09:48.309Z,11.45
2023-09-06T20:14:50.408Z,10.05
2023-09-06T20:19:54.783Z,8.85
2023-09-06T20:24:57.116Z,18.88
2023-09-06T20:29:59.312Z,25.63
2023-09-06T20:35:01.522Z,26.75
2023-09-06T20:40:04.620Z,31.33
2023-09-06T20:45:07.357Z,20.83
2023-09-06T20:50:14.043Z,13.38
2023-09-06T20:55:16.505Z,14.48
2023-09-06T21:00:18.647Z,9.80
2023-09-06T21:05:20.801Z,11.20
2023-09-06T21:10:22.943Z,9.65
2023-09-06T21:15:25.294Z,10.30
2023-09-06T21:20:30.838Z,9.30
2023-09-06T21:25:33.115Z,10.82
2023-09-06T21:30:35.322Z,10.52
2023-09-06T21:35:42.842Z,12.23
2023-09-06T21:40:46.222Z,9.27
2023-09-06T21:45:50.375Z,11.73
2023-09-06T21:51:07.468Z,13.70
2023-09-06T21:56:10.079Z,10.43
2023-09-06T22:01:12.879Z,10.35
2023-09-06T22:11:54.834Z,10.63
2023-09-06T22:16:58.215Z,11.07
2023-09-06T22:22:00.611Z,14.43
2023-09-06T22:27:03.037Z,12.45
2023-09-06T22:32:06.252Z,10.75
2023-09-06T22:37:09.105Z,11.30
2023-09-06T22:42:12.290Z,12.32
2023-09-06T22:47:14.556Z,14.65
2023-09-06T22:52:17.031Z,11.65
2023-09-06T22:57:19.324Z,14.20
2023-09-06T23:02:21.586Z,14.10
2023-09-06T23:07:23.860Z,16.65
2023-09-06T23:12:28.216Z,11.00
2023-09-06T23:17:37.687Z,11.77
2023-09-06T23:22:45.165Z,11.85
2023-09-06T23:27:47.945Z,15.93
2023-09-06T23:32:57.879Z,15.27
2023-09-06T23:38:07.214Z,11.07
2023-09-06T23:43:10.584Z,15.15
2023-09-06T23:48:12.818Z,11.50
2023-09-06T23:53:15.111Z,13.00
2023-09-06T23:58:17.296Z,15.00
